createdAt,value
2022-10-17T00:00:08.213Z,15.70
2022-10-17T00:03:50.078Z,15.70
2022-10-17T00:07:31.959Z,15.70
2022-10-17T00:11:23.652Z,15.60
2022-10-17T00:15:07.743Z,15.60
2022-10-17T00:18:49.844Z,15.60
2022-10-17T00:22:31.880Z,15.60
2022-10-17T00:26:14.466Z,15.60
2022-10-17T00:29:56.301Z,15.60
2022-10-17T00:33:39.307Z,15.60
2022-10-17T00:37:21.207Z,15.60
2022-10-17T00:41:04.542Z,15.60
2022-10-17T00:44:47.684Z,15.70
2022-10-17T00:48:29.712Z,15.70
2022-10-17T00:52:26.374Z,15.70
2022-10-17T00:56:09.004Z,15.70
2022-10-17T00:59:55.312Z,15.70
2022-10-17T01:03:37.158Z,15.70
2022-10-17T01:07:19.149Z,15.80
2022-10-17T01:11:06.780Z,15.80
2022-10-17T01:14:57.754Z,15.80
2022-10-17T01:18:51.785Z,15.80
2022-10-17T01:22:47.552Z,15.90
2022-10-17T01:26:48.094Z,15.80
2022-10-17T01:30:48.735Z,15.90
2022-10-17T01:34:41.481Z,16.00
2022-10-17T01:38:48.697Z,16.00
2022-10-17T01:42:36.929Z,15.90
2022-10-17T01:46:34.771Z,15.90
2022-10-17T01:50:39.319Z,16.00
2022-10-17T01:54:44.563Z,16.00
2022-10-17T01:58:34.151Z,15.90
2022-10-17T02:02:19.148Z,15.90
2022-10-17T02:06:01.548Z,15.80
2022-10-17T02:09:44.025Z,15.80
2022-10-17T02:13:44.505Z,15.80
2022-10-17T02:17:29.573Z,15.80
2022-10-17T02:21:27.237Z,15.70
2022-10-17T02:25:15.273Z,15.70
2022-10-17T02:29:07.559Z,15.70
2022-10-17T02:33:02.103Z,15.70
2022-10-17T02:36:49.914Z,15.70
2022-10-17T02:40:32.312Z,15.70
2022-10-17T02:44:14.848Z,15.70
2022-10-17T02:48:08.369Z,15.70
2022-10-17T02:52:03.290Z,15.80
2022-10-17T02:55:53.899Z,15.70
2022-10-17T02:59:37.142Z,15.70
2022-10-17T03:03:26.100Z,15.70
2022-10-17T03:07:08.019Z,15.70
2022-10-17T03:10:50.088Z,15.70
2022-10-17T03:14:32.065Z,15.60
2022-10-17T03:18:14.009Z,15.50
2022-10-17T03:21:56.541Z,15.50
2022-10-17T03:25:38.598Z,15.50
2022-10-17T03:29:20.443Z,15.40
2022-10-17T03:33:02.267Z,15.40
2022-10-17T03:36:44.472Z,15.30
2022-10-17T03:40:26.332Z,15.20
2022-10-17T03:44:08.213Z,15.10
2022-10-17T03:47:50.230Z,15.10
2022-10-17T03:51:35.095Z,15.10
2022-10-17T03:55:17.540Z,15.10
2022-10-17T03:58:59.447Z,15.10
2022-10-17T04:02:41.806Z,15.10
2022-10-17T04:06:24.010Z,15.10
2022-10-17T04:10:06.531Z,15.10
2022-10-17T04:13:52.448Z,15.10
2022-10-17T04:17:37.327Z,15.10
2022-10-17T04:21:20.312Z,15.10
2022-10-17T04:25:02.261Z,15.20
2022-10-17T04:28:44.125Z,15.20
2022-10-17T04:32:26.374Z,15.20
2022-10-17T04:36:12.150Z,15.20
2022-10-17T04:39:54.035Z,15.20
2022-10-17T04:43:38.138Z,15.20
2022-10-17T04:47:19.981Z,15.20
2022-10-17T04:51:04.835Z,15.20
2022-10-17T04:54:46.772Z,15.20
2022-10-17T04:58:30.325Z,15.10
2022-10-17T05:02:12.513Z,15.10
2022-10-17T05:05:54.380Z,15.00
2022-10-17T05:09:36.219Z,15.00
2022-10-17T05:13:18.057Z,15.00
2022-10-17T05:17:00.095Z,14.90
2022-10-17T05:20:41.992Z,14.90
2022-10-17T05:24:23.898Z,14.90
2022-10-17T05:28:06.095Z,14.80
2022-10-17T05:31:47.975Z,14.80
2022-10-17T05:35:29.894Z,14.80
2022-10-17T05:39:14.898Z,14.80
2022-10-17T05:42:56.725Z,14.70
2022-10-17T05:46:38.614Z,14.70
2022-10-17T05:50:22.140Z,14.60
2022-10-17T05:54:06.804Z,14.60
2022-10-17T05:57:49.610Z,14.60
2022-10-17T06:01:31.535Z,14.60
2022-10-17T06:05:14.457Z,14.50
2022-10-17T06:08:56.367Z,14.50
2022-10-17T06:12:38.670Z,14.50
2022-10-17T06:16:21.663Z,14.40
2022-10-17T06:20:04.187Z,14.40
2022-10-17T06:23:46.140Z,14.40
2022-10-17T06:27:28.054Z,14.40
2022-10-17T06:31:14.027Z,14.40
2022-10-17T06:34:55.792Z,14.30
2022-10-17T06:38:37.709Z,14.30
2022-10-17T06:42:19.785Z,14.40
2022-10-17T06:46:01.705Z,14.40
2022-10-17T06:49:43.625Z,14.30
2022-10-17T06:53:29.982Z,14.40
2022-10-17T06:57:12.568Z,14.30
2022-10-17T07:01:00.979Z,14.40
2022-10-17T07:04:47.258Z,14.40
2022-10-17T07:08:29.227Z,14.40
2022-10-17T07:12:13.449Z,14.40
2022-10-17T07:16:00.339Z,14.40
2022-10-17T07:19:43.532Z,14.40
2022-10-17T07:23:25.618Z,14.40
2022-10-17T07:27:07.676Z,14.40
2022-10-17T07:30:53.646Z,14.50
2022-10-17T07:34:36.587Z,14.50
2022-10-17T07:38:18.460Z,14.60
2022-10-17T07:42:00.278Z,14.60
2022-10-17T07:45:42.241Z,14.70
2022-10-17T07:49:24.194Z,14.70
2022-10-17T07:53:06.096Z,14.80
2022-10-17T07:56:50.777Z,14.80
2022-10-17T08:00:33.206Z,14.80
2022-10-17T08:07:58.089Z,14.90
2022-10-17T08:11:40.341Z,15.00
2022-10-17T08:15:26.753Z,15.10
2022-10-17T08:19:11.671Z,15.20
2022-10-17T08:22:55.006Z,15.30
2022-10-17T08:26:40.649Z,15.40
2022-10-17T08:30:25.776Z,15.50
2022-10-17T08:34:07.896Z,15.50
2022-10-17T08:37:50.199Z,15.70
2022-10-17T08:42:06.088Z,16.10
2022-10-17T08:45:56.503Z,16.70
2022-10-17T08:49:41.312Z,17.40
2022-10-17T08:53:50.855Z,17.80
2022-10-17T08:57:33.089Z,17.90
2022-10-17T09:01:36.975Z,17.90
2022-10-17T09:05:41.589Z,17.80
2022-10-17T09:09:51.268Z,17.60
2022-10-17T09:13:48.377Z,17.70
2022-10-17T09:17:53.402Z,18.00
2022-10-17T09:21:59.631Z,18.80
2022-10-17T09:25:58.311Z,19.60
2022-10-17T09:29:43.810Z,20.30
2022-10-17T09:33:55.097Z,20.80
2022-10-17T09:37:38.733Z,21.20
2022-10-17T09:41:46.872Z,21.80
2022-10-17T09:45:54.847Z,22.30
2022-10-17T09:49:40.540Z,23.10
2022-10-17T09:53:38.397Z,23.70
2022-10-17T09:57:23.691Z,24.20
2022-10-17T10:01:24.854Z,24.60
2022-10-17T10:05:23.910Z,24.80
2022-10-17T10:09:25.965Z,25.50
2022-10-17T10:13:24.200Z,26.20
2022-10-17T10:17:42.390Z,26.90
2022-10-17T10:21:28.412Z,27.40
2022-10-17T10:25:16.082Z,27.60
2022-10-17T10:29:06.280Z,28.10
2022-10-17T10:32:55.651Z,28.30
2022-10-17T10:37:02.394Z,28.60
2022-10-17T10:41:07.279Z,28.70
2022-10-17T10:44:51.598Z,28.80
2022-10-17T10:48:37.412Z,28.70
2022-10-17T10:57:21.187Z,28.40
2022-10-17T11:01:22.956Z,27.90
2022-10-17T11:05:12.354Z,27.60
2022-10-17T11:09:31.329Z,28.10
2022-10-17T11:13:15.045Z,28.70
2022-10-17T11:17:33.331Z,28.40
2022-10-17T11:21:34.383Z,28.00
2022-10-17T11:25:31.346Z,28.50
2022-10-17T11:29:18.536Z,28.70
2022-10-17T11:33:12.867Z,28.20
2022-10-17T11:37:05.644Z,28.60
2022-10-17T11:40:51.724Z,29.30
2022-10-17T11:44:40.938Z,29.30
2022-10-17T11:48:29.378Z,29.90
2022-10-17T11:57:06.362Z,30.20
2022-10-17T12:01:16.608Z,30.90
2022-10-17T12:09:46.289Z,30.10
2022-10-17T12:13:28.579Z,30.10
2022-10-17T12:17:36.024Z,30.10
2022-10-17T12:21:17.891Z,30.20
2022-10-17T12:25:05.370Z,30.60
2022-10-17T12:28:49.569Z,30.60
2022-10-17T12:32:46.853Z,30.50
2022-10-17T12:36:33.738Z,30.50
2022-10-17T12:40:37.669Z,30.90
2022-10-17T12:44:21.846Z,31.20
2022-10-17T12:48:11.495Z,31.60
2022-10-17T12:52:18.242Z,31.90
2022-10-17T12:56:01.173Z,31.50
2022-10-17T12:59:45.254Z,31.00
2022-10-17T13:03:34.288Z,30.80
2022-10-17T13:07:22.556Z,30.00
2022-10-17T13:11:05.706Z,29.30
2022-10-17T13:14:50.440Z,29.00
2022-10-17T13:18:33.047Z,28.90
2022-10-17T13:22:22.147Z,29.60
2022-10-17T13:26:23.589Z,30.00
2022-10-17T13:30:38.599Z,29.80
2022-10-17T13:34:26.464Z,29.60
2022-10-17T13:38:11.470Z,29.60
2022-10-17T13:41:55.838Z,29.70
2022-10-17T13:45:38.838Z,29.30
2022-10-17T13:49:42.570Z,28.60
2022-10-17T13:53:35.412Z,27.70
2022-10-17T13:57:29.395Z,27.00
2022-10-17T14:01:15.216Z,26.10
2022-10-17T14:05:17.705Z,25.30
2022-10-17T14:09:21.369Z,24.90
2022-10-17T14:13:05.569Z,24.30
2022-10-17T14:16:58.348Z,24.30
2022-10-17T14:24:50.796Z,24.40
2022-10-17T14:28:32.688Z,24.10
2022-10-17T14:32:16.015Z,23.80
2022-10-17T14:36:00.648Z,23.40
2022-10-17T14:39:43.747Z,23.20
2022-10-17T14:43:28.594Z,23.00
2022-10-17T14:47:42.094Z,22.70
2022-10-17T14:51:21.338Z,22.40
2022-10-17T14:55:24.244Z,22.10
2022-10-17T14:59:11.117Z,21.90
2022-10-17T15:02:56.424Z,21.70
2022-10-17T15:06:42.229Z,21.60
2022-10-17T15:10:24.283Z,21.60
2022-10-17T15:14:08.912Z,21.60
2022-10-17T15:17:50.860Z,21.60
2022-10-17T15:21:39.489Z,21.40
2022-10-17T15:25:26.168Z,21.30
2022-10-17T15:29:17.403Z,21.20
2022-10-17T15:32:59.955Z,21.10
2022-10-17T15:36:48.514Z,21.00
2022-10-17T15:40:31.099Z,20.90
2022-10-17T15:44:12.954Z,20.80
2022-10-17T15:47:59.940Z,20.60
2022-10-17T15:51:42.036Z,20.50
2022-10-17T15:55:24.062Z,20.30
2022-10-17T15:59:15.570Z,20.20
2022-10-17T16:02:57.443Z,20.10
2022-10-17T16:06:39.635Z,20.00
2022-10-17T16:10:22.852Z,19.80
2022-10-17T16:14:06.964Z,19.70
2022-10-17T16:17:49.822Z,19.50
2022-10-17T16:21:34.788Z,19.40
2022-10-17T16:25:23.165Z,19.30
2022-10-17T16:29:05.278Z,19.20
2022-10-17T16:32:47.741Z,19.10
2022-10-17T16:36:30.208Z,19.00
2022-10-17T16:40:12.287Z,18.90
2022-10-17T16:43:56.461Z,18.90
2022-10-17T16:47:38.300Z,18.80
2022-10-17T16:51:21.048Z,18.70
2022-10-17T16:55:03.087Z,18.60
2022-10-17T16:58:45.704Z,18.50
2022-10-17T17:02:27.636Z,18.40
2022-10-17T17:06:13.277Z,18.30
2022-10-17T17:09:56.326Z,18.30
2022-10-17T17:13:38.918Z,18.10
2022-10-17T17:17:37.033Z,18.00
2022-10-17T17:21:23.242Z,17.90
2022-10-17T17:25:05.440Z,17.70
2022-10-17T17:28:47.972Z,17.60
2022-10-17T17:32:29.952Z,17.50
2022-10-17T17:36:15.311Z,17.30
2022-10-17T17:39:57.231Z,17.20
2022-10-17T17:43:39.622Z,17.10
2022-10-17T17:47:21.451Z,17.00
2022-10-17T17:51:04.926Z,16.90
2022-10-17T17:54:46.801Z,16.80
2022-10-17T17:58:28.819Z,16.60
2022-10-17T18:02:11.408Z,16.50
2022-10-17T18:05:53.986Z,16.40
2022-10-17T18:09:35.849Z,16.30
2022-10-17T18:13:17.901Z,16.20
2022-10-17T18:16:59.791Z,16.10
2022-10-17T18:20:42.889Z,16.00
2022-10-17T18:24:24.960Z,16.00
2022-10-17T18:28:08.447Z,15.90
2022-10-17T18:31:50.315Z,15.80
2022-10-17T18:35:32.325Z,15.60
2022-10-17T18:39:14.140Z,15.60
2022-10-17T18:42:56.157Z,15.50
2022-10-17T18:46:41.800Z,15.40
2022-10-17T18:50:25.029Z,15.30
2022-10-17T18:54:12.305Z,15.30
2022-10-17T18:57:54.191Z,15.20
2022-10-17T19:01:36.528Z,15.10
2022-10-17T19:05:18.572Z,15.00
2022-10-17T19:09:01.989Z,15.00
2022-10-17T19:12:43.855Z,14.90
2022-10-17T19:16:28.568Z,14.90
2022-10-17T19:20:10.772Z,14.80
2022-10-17T19:23:55.513Z,14.70
2022-10-17T19:27:37.432Z,14.60
2022-10-17T19:31:26.830Z,14.60
2022-10-17T19:35:11.816Z,14.60
2022-10-17T19:38:54.640Z,14.60
2022-10-17T19:42:36.540Z,14.50
2022-10-17T19:46:22.145Z,14.40
2022-10-17T19:50:04.871Z,14.50
2022-10-17T19:53:47.430Z,14.40
2022-10-17T19:57:29.376Z,14.30
2022-10-17T20:01:13.274Z,14.20
2022-10-17T20:05:17.077Z,14.20
2022-10-17T20:08:57.054Z,14.10
2022-10-17T20:12:38.943Z,14.00
2022-10-17T20:16:23.785Z,14.00
2022-10-17T20:20:08.738Z,13.90
2022-10-17T20:23:51.617Z,13.80
2022-10-17T20:27:33.657Z,13.80
2022-10-17T20:31:15.884Z,13.70
2022-10-17T20:34:58.341Z,13.50
2022-10-17T20:38:40.681Z,13.50
2022-10-17T20:42:22.695Z,13.40
2022-10-17T20:46:22.842Z,13.30
2022-10-17T20:50:05.852Z,13.20
2022-10-17T20:53:48.821Z,13.20
2022-10-17T20:57:31.092Z,13.10
2022-10-17T21:01:13.507Z,13.10
2022-10-17T21:04:55.448Z,13.00
2022-10-17T21:08:37.892Z,13.00
2022-10-17T21:12:30.903Z,13.00
2022-10-17T21:16:19.575Z,12.90
2022-10-17T21:20:01.465Z,12.80
2022-10-17T21:23:46.413Z,12.80
2022-10-17T21:27:28.434Z,12.70
2022-10-17T21:31:18.334Z,12.60
2022-10-17T21:35:00.238Z,12.50
2022-10-17T21:38:42.655Z,12.50
2022-10-17T21:42:24.771Z,12.50
2022-10-17T21:46:18.658Z,12.40
2022-10-17T21:50:00.561Z,12.30
2022-10-17T21:53:43.417Z,12.20
2022-10-17T21:57:25.362Z,12.20
2022-10-17T22:01:15.637Z,12.10
2022-10-17T22:04:57.520Z,12.10
2022-10-17T22:08:40.213Z,12.00
2022-10-17T22:12:22.305Z,12.00
2022-10-17T22:16:07.227Z,11.90
2022-10-17T22:19:49.112Z,11.80
2022-10-17T22:23:31.264Z,11.80
2022-10-17T22:27:13.263Z,11.80
2022-10-17T22:30:55.726Z,11.70
2022-10-17T22:34:37.584Z,11.70
2022-10-17T22:38:20.430Z,11.60
2022-10-17T22:42:02.311Z,11.60
2022-10-17T22:45:51.103Z,11.50
2022-10-17T22:49:33.756Z,11.50
2022-10-17T22:53:23.808Z,11.40
2022-10-17T22:57:05.864Z,11.40
2022-10-17T23:00:48.873Z,11.30
2022-10-17T23:04:30.744Z,11.30
2022-10-17T23:08:13.868Z,11.30
2022-10-17T23:11:55.771Z,11.20
2022-10-17T23:15:37.931Z,11.20
2022-10-17T23:19:19.827Z,11.10
2022-10-17T23:23:01.753Z,11.00
2022-10-17T23:26:43.801Z,11.00
2022-10-17T23:30:25.944Z,11.00
2022-10-17T23:34:07.880Z,10.90
2022-10-17T23:37:49.734Z,10.80
2022-10-17T23:41:32.397Z,10.70
2022-10-17T23:45:14.212Z,10.50
2022-10-17T23:48:56.385Z,10.50
2022-10-17T23:52:38.483Z,10.50
2022-10-17T23:56:20.336Z,10.50
